sensor_id;sensor_type;location;lat;lon;timestamp;P1;durP1;ratioP1;P2;durP2;ratioP2
4089;SDS011;2059;48.538;12.146;2023-04-03T00:02:31;5.33;;;5.03;;
4089;SDS011;2059;48.538;12.146;2023-04-03T00:07:33;4.27;;;4.00;;
4089;SDS011;2059;48.538;12.146;2023-04-03T00:12:35;4.77;;;4.47;;
4089;SDS011;2059;48.538;12.146;2023-04-03T00:17:38;4.47;;;4.27;;
4089;SDS011;2059;48.538;12.146;2023-04-03T00:22:40;4.60;;;4.33;;
4089;SDS011;2059;48.538;12.146;2023-04-03T00:27:41;4.23;;;4.00;;
4089;SDS011;2059;48.538;12.146;2023-04-03T00:38:42;4.50;;;4.20;;
4089;SDS011;2059;48.538;12.146;2023-04-03T00:43:44;3.73;;;3.50;;
4089;SDS011;2059;48.538;12.146;2023-04-03T00:48:46;4.50;;;4.10;;
4089;SDS011;2059;48.538;12.146;2023-04-03T00:53:51;3.87;;;3.67;;
4089;SDS011;2059;48.538;12.146;2023-04-03T00:58:57;4.43;;;4.13;;
4089;SDS011;2059;48.538;12.146;2023-04-03T01:04:00;4.53;;;4.17;;
4089;SDS011;2059;48.538;12.146;2023-04-03T01:09:04;4.27;;;4.03;;
4089;SDS011;2059;48.538;12.146;2023-04-03T01:14:06;4.73;;;4.43;;
4089;SDS011;2059;48.538;12.146;2023-04-03T01:19:10;4.40;;;4.10;;
4089;SDS011;2059;48.538;12.146;2023-04-03T01:24:29;4.60;;;4.30;;
4089;SDS011;2059;48.538;12.146;2023-04-03T01:29:34;5.33;;;4.93;;
4089;SDS011;2059;48.538;12.146;2023-04-03T01:34:37;4.77;;;4.37;;
4089;SDS011;2059;48.538;12.146;2023-04-03T01:39:39;5.10;;;4.70;;
4089;SDS011;2059;48.538;12.146;2023-04-03T01:44:41;5.47;;;5.00;;
4089;SDS011;2059;48.538;12.146;2023-04-03T01:49:44;4.80;;;4.43;;
4089;SDS011;2059;48.538;12.146;2023-04-03T01:54:46;4.40;;;4.10;;
4089;SDS011;2059;48.538;12.146;2023-04-03T01:59:48;4.93;;;4.30;;
4089;SDS011;2059;48.538;12.146;2023-04-03T02:04:52;4.50;;;4.20;;
4089;SDS011;2059;48.538;12.146;2023-04-03T02:09:54;4.10;;;3.80;;
4089;SDS011;2059;48.538;12.146;2023-04-03T02:14:56;4.13;;;3.70;;
4089;SDS011;2059;48.538;12.146;2023-04-03T02:19:59;4.40;;;4.10;;
4089;SDS011;2059;48.538;12.146;2023-04-03T02:25:01;4.10;;;3.80;;
4089;SDS011;2059;48.538;12.146;2023-04-03T02:30:03;4.50;;;4.10;;
4089;SDS011;2059;48.538;12.146;2023-04-03T02:35:08;3.80;;;3.50;;
4089;SDS011;2059;48.538;12.146;2023-04-03T02:40:10;4.70;;;4.40;;
4089;SDS011;2059;48.538;12.146;2023-04-03T02:45:12;4.60;;;4.30;;
4089;SDS011;2059;48.538;12.146;2023-04-03T02:50:15;4.63;;;4.23;;
4089;SDS011;2059;48.538;12.146;2023-04-03T02:55:17;4.60;;;4.30;;
4089;SDS011;2059;48.538;12.146;2023-04-03T03:00:19;4.10;;;3.87;;
4089;SDS011;2059;48.538;12.146;2023-04-03T03:05:23;4.50;;;4.20;;
4089;SDS011;2059;48.538;12.146;2023-04-03T03:10:24;4.30;;;4.00;;
4089;SDS011;2059;48.538;12.146;2023-04-03T03:15:26;4.50;;;4.10;;
4089;SDS011;2059;48.538;12.146;2023-04-03T03:20:29;4.50;;;4.20;;
4089;SDS011;2059;48.538;12.146;2023-04-03T03:25:31;4.80;;;4.50;;
4089;SDS011;2059;48.538;12.146;2023-04-03T03:30:33;7.30;;;4.30;;
4089;SDS011;2059;48.538;12.146;2023-04-03T03:35:36;6.60;;;6.00;;
4089;SDS011;2059;48.538;12.146;2023-04-03T03:40:38;7.47;;;6.77;;
4089;SDS011;2059;48.538;12.146;2023-04-03T03:45:40;5.87;;;5.23;;
4089;SDS011;2059;48.538;12.146;2023-04-03T03:50:43;6.23;;;5.83;;
4089;SDS011;2059;48.538;12.146;2023-04-03T03:55:45;6.50;;;5.90;;
4089;SDS011;2059;48.538;12.146;2023-04-03T04:00:46;6.40;;;5.90;;
4089;SDS011;2059;48.538;12.146;2023-04-03T04:05:50;6.33;;;5.83;;
4089;SDS011;2059;48.538;12.146;2023-04-03T04:10:52;5.90;;;5.27;;
4089;SDS011;2059;48.538;12.146;2023-04-03T04:15:54;6.07;;;5.57;;
4089;SDS011;2059;48.538;12.146;2023-04-03T04:20:57;6.30;;;5.80;;
4089;SDS011;2059;48.538;12.146;2023-04-03T04:25:59;6.30;;;5.80;;
4089;SDS011;2059;48.538;12.146;2023-04-03T04:31:01;6.40;;;5.87;;
4089;SDS011;2059;48.538;12.146;2023-04-03T04:36:04;6.00;;;5.50;;
4089;SDS011;2059;48.538;12.146;2023-04-03T04:41:06;7.27;;;6.00;;
4089;SDS011;2059;48.538;12.146;2023-04-03T04:46:09;6.03;;;5.60;;
4089;SDS011;2059;48.538;12.146;2023-04-03T04:51:14;6.00;;;5.40;;
4089;SDS011;2059;48.538;12.146;2023-04-03T04:56:16;6.00;;;5.50;;
4089;SDS011;2059;48.538;12.146;2023-04-03T05:01:18;6.10;;;5.60;;
4089;SDS011;2059;48.538;12.146;2023-04-03T05:06:21;9.10;;;8.40;;
4089;SDS011;2059;48.538;12.146;2023-04-03T05:11:23;6.87;;;6.23;;
4089;SDS011;2059;48.538;12.146;2023-04-03T05:16:25;7.67;;;6.87;;
4089;SDS011;2059;48.538;12.146;2023-04-03T05:21:28;7.80;;;6.27;;
4089;SDS011;2059;48.538;12.146;2023-04-03T05:26:32;7.23;;;6.53;;
4089;SDS011;2059;48.538;12.146;2023-04-03T05:31:34;8.07;;;7.40;;
4089;SDS011;2059;48.538;12.146;2023-04-03T05:36:37;7.30;;;6.70;;
4089;SDS011;2059;48.538;12.146;2023-04-03T05:41:39;9.27;;;7.10;;
4089;SDS011;2059;48.538;12.146;2023-04-03T05:46:41;7.80;;;7.00;;
4089;SDS011;2059;48.538;12.146;2023-04-03T05:51:44;7.20;;;6.50;;
4089;SDS011;2059;48.538;12.146;2023-04-03T05:56:46;10.00;;;6.87;;
4089;SDS011;2059;48.538;12.146;2023-04-03T06:01:48;8.53;;;7.73;;
4089;SDS011;2059;48.538;12.146;2023-04-03T06:06:52;9.83;;;7.13;;
4089;SDS011;2059;48.538;12.146;2023-04-03T06:11:55;6.93;;;6.43;;
4089;SDS011;2059;48.538;12.146;2023-04-03T06:16:58;8.07;;;7.23;;
4089;SDS011;2059;48.538;12.146;2023-04-03T06:22:05;13.40;;;6.87;;
4089;SDS011;2059;48.538;12.146;2023-04-03T06:27:07;9.47;;;7.37;;
4089;SDS011;2059;48.538;12.146;2023-04-03T06:32:10;8.00;;;6.80;;
4089;SDS011;2059;48.538;12.146;2023-04-03T06:37:15;9.77;;;7.20;;
4089;SDS011;2059;48.538;12.146;2023-04-03T06:42:18;7.90;;;6.57;;
4089;SDS011;2059;48.538;12.146;2023-04-03T06:47:20;7.20;;;6.60;;
4089;SDS011;2059;48.538;12.146;2023-04-03T06:52:24;5.80;;;5.40;;
4089;SDS011;2059;48.538;12.146;2023-04-03T06:57:26;6.93;;;6.33;;
4089;SDS011;2059;48.538;12.146;2023-04-03T07:02:28;6.97;;;6.37;;
4089;SDS011;2059;48.538;12.146;2023-04-03T07:07:31;6.30;;;5.60;;
4089;SDS011;2059;48.538;12.146;2023-04-03T07:12:34;6.83;;;6.23;;
4089;SDS011;2059;48.538;12.146;2023-04-03T07:17:35;6.40;;;5.87;;
4089;SDS011;2059;48.538;12.146;2023-04-03T07:22:39;5.97;;;5.50;;
4089;SDS011;2059;48.538;12.146;2023-04-03T07:27:40;6.10;;;5.60;;
4089;SDS011;2059;48.538;12.146;2023-04-03T07:32:42;6.53;;;5.87;;
4089;SDS011;2059;48.538;12.146;2023-04-03T07:37:45;6.00;;;5.57;;
4089;SDS011;2059;48.538;12.146;2023-04-03T07:42:47;6.37;;;5.87;;
4089;SDS011;2059;48.538;12.146;2023-04-03T07:47:50;7.00;;;5.30;;
4089;SDS011;2059;48.538;12.146;2023-04-03T07:52:53;8.03;;;7.23;;
4089;SDS011;2059;48.538;12.146;2023-04-03T07:57:57;6.50;;;5.90;;
4089;SDS011;2059;48.538;12.146;2023-04-03T08:02:59;11.40;;;6.03;;
4089;SDS011;2059;48.538;12.146;2023-04-03T08:08:02;8.40;;;5.20;;
4089;SDS011;2059;48.538;12.146;2023-04-03T08:13:04;5.40;;;5.00;;
4089;SDS011;2059;48.538;12.146;2023-04-03T08:18:07;4.23;;;3.93;;
4089;SDS011;2059;48.538;12.146;2023-04-03T08:23:10;4.90;;;4.50;;
4089;SDS011;2059;48.538;12.146;2023-04-03T08:28:12;5.97;;;3.70;;
4089;SDS011;2059;48.538;12.146;2023-04-03T08:33:14;4.30;;;3.90;;
4089;SDS011;2059;48.538;12.146;2023-04-03T08:38:17;3.70;;;3.17;;
4089;SDS011;2059;48.538;12.146;2023-04-03T08:43:24;4.00;;;3.70;;
4089;SDS011;2059;48.538;12.146;2023-04-03T08:48:36;3.80;;;3.50;;
4089;SDS011;2059;48.538;12.146;2023-04-03T08:53:43;4.20;;;3.80;;
4089;SDS011;2059;48.538;12.146;2023-04-03T08:58:55;4.30;;;3.90;;
4089;SDS011;2059;48.538;12.146;2023-04-03T09:04:00;4.57;;;4.10;;
4089;SDS011;2059;48.538;12.146;2023-04-03T09:09:08;4.10;;;3.80;;
4089;SDS011;2059;48.538;12.146;2023-04-03T09:14:15;7.07;;;3.77;;
4089;SDS011;2059;48.538;12.146;2023-04-03T09:19:28;5.13;;;4.43;;
4089;SDS011;2059;48.538;12.146;2023-04-03T09:24:40;3.67;;;3.10;;
4089;SDS011;2059;48.538;12.146;2023-04-03T09:29:43;3.50;;;3.30;;
4089;SDS011;2059;48.538;12.146;2023-04-03T09:34:46;3.37;;;3.17;;
4089;SDS011;2059;48.538;12.146;2023-04-03T09:39:52;3.33;;;3.10;;
4089;SDS011;2059;48.538;12.146;2023-04-03T09:44:56;3.73;;;3.53;;
4089;SDS011;2059;48.538;12.146;2023-04-03T09:50:18;3.50;;;3.30;;
4089;SDS011;2059;48.538;12.146;2023-04-03T09:55:23;3.67;;;3.23;;
4089;SDS011;2059;48.538;12.146;2023-04-03T10:00:30;9.93;;;7.70;;
4089;SDS011;2059;48.538;12.146;2023-04-03T10:05:35;3.40;;;3.20;;
4089;SDS011;2059;48.538;12.146;2023-04-03T10:10:39;3.50;;;3.20;;
4089;SDS011;2059;48.538;12.146;2023-04-03T10:15:42;4.10;;;3.80;;
4089;SDS011;2059;48.538;12.146;2023-04-03T10:20:47;3.30;;;3.10;;
4089;SDS011;2059;48.538;12.146;2023-04-03T10:25:58;3.67;;;3.37;;
4089;SDS011;2059;48.538;12.146;2023-04-03T10:31:09;4.00;;;3.70;;
4089;SDS011;2059;48.538;12.146;2023-04-03T10:36:20;4.77;;;4.50;;
4089;SDS011;2059;48.538;12.146;2023-04-03T10:41:34;3.40;;;3.17;;
4089;SDS011;2059;48.538;12.146;2023-04-03T10:46:49;6.53;;;3.47;;
4089;SDS011;2059;48.538;12.146;2023-04-03T10:51:56;3.50;;;3.20;;
4089;SDS011;2059;48.538;12.146;2023-04-03T10:57:08;6.47;;;3.40;;
4089;SDS011;2059;48.538;12.146;2023-04-03T11:02:13;5.37;;;3.70;;
4089;SDS011;2059;48.538;12.146;2023-04-03T11:07:20;3.03;;;2.87;;
4089;SDS011;2059;48.538;12.146;2023-04-03T11:12:27;3.93;;;3.63;;
4089;SDS011;2059;48.538;12.146;2023-04-03T11:17:37;3.40;;;3.20;;
4089;SDS011;2059;48.538;12.146;2023-04-03T11:22:45;3.40;;;3.10;;
4089;SDS011;2059;48.538;12.146;2023-04-03T11:27:55;5.40;;;3.27;;
4089;SDS011;2059;48.538;12.146;2023-04-03T11:33:05;3.53;;;3.23;;
4089;SDS011;2059;48.538;12.146;2023-04-03T11:38:18;3.03;;;2.93;;
4089;SDS011;2059;48.538;12.146;2023-04-03T11:43:25;3.70;;;3.40;;
4089;SDS011;2059;48.538;12.146;2023-04-03T11:48:45;3.00;;;2.90;;
4089;SDS011;2059;48.538;12.146;2023-04-03T11:53:49;3.23;;;3.10;;
4089;SDS011;2059;48.538;12.146;2023-04-03T12:04:37;2.93;;;2.83;;
4089;SDS011;2059;48.538;12.146;2023-04-03T12:15:20;3.10;;;2.80;;
4089;SDS011;2059;48.538;12.146;2023-04-03T12:26:05;3.30;;;3.10;;
4089;SDS011;2059;48.538;12.146;2023-04-03T12:31:24;3.17;;;3.00;;
4089;SDS011;2059;48.538;12.146;2023-04-03T12:36:35;3.40;;;3.20;;
4089;SDS011;2059;48.538;12.146;2023-04-03T12:41:44;4.63;;;4.43;;
4089;SDS011;2059;48.538;12.146;2023-04-03T12:46:54;4.40;;;4.20;;
4089;SDS011;2059;48.538;12.146;2023-04-03T12:51:55;3.33;;;3.10;;
4089;SDS011;2059;48.538;12.146;2023-04-03T12:57:09;3.23;;;3.10;;
4089;SDS011;2059;48.538;12.146;2023-04-03T13:02:17;4.70;;;3.60;;
4089;SDS011;2059;48.538;12.146;2023-04-03T13:07:24;3.30;;;3.10;;
4089;SDS011;2059;48.538;12.146;2023-04-03T13:12:30;3.40;;;3.17;;
4089;SDS011;2059;48.538;12.146;2023-04-03T13:17:34;3.20;;;3.03;;
4089;SDS011;2059;48.538;12.146;2023-04-03T13:22:42;3.37;;;3.13;;
4089;SDS011;2059;48.538;12.146;2023-04-03T13:27:48;4.50;;;3.40;;
4089;SDS011;2059;48.538;12.146;2023-04-03T13:32:52;3.40;;;3.23;;
4089;SDS011;2059;48.538;12.146;2023-04-03T13:37:55;3.20;;;3.07;;
4089;SDS011;2059;48.538;12.146;2023-04-03T13:43:00;3.30;;;3.10;;
4089;SDS011;2059;48.538;12.146;2023-04-03T13:48:10;3.37;;;3.07;;
4089;SDS011;2059;48.538;12.146;2023-04-03T13:53:17;4.57;;;4.20;;
4089;SDS011;2059;48.538;12.146;2023-04-03T13:58:20;3.83;;;3.53;;
4089;SDS011;2059;48.538;12.146;2023-04-03T14:03:26;3.57;;;3.37;;
4089;SDS011;2059;48.538;12.146;2023-04-03T14:08:31;3.10;;;2.90;;
4089;SDS011;2059;48.538;12.146;2023-04-03T14:13:33;10.50;;;3.43;;
4089;SDS011;2059;48.538;12.146;2023-04-03T14:18:36;3.40;;;3.20;;
4089;SDS011;2059;48.538;12.146;2023-04-03T14:23:38;3.73;;;3.43;;
4089;SDS011;2059;48.538;12.146;2023-04-03T14:28:40;3.50;;;3.20;;
4089;SDS011;2059;48.538;12.146;2023-04-03T14:33:43;3.17;;;3.00;;
4089;SDS011;2059;48.538;12.146;2023-04-03T14:38:46;3.33;;;3.10;;
4089;SDS011;2059;48.538;12.146;2023-04-03T14:43:48;3.53;;;3.30;;
4089;SDS011;2059;48.538;12.146;2023-04-03T14:48:52;3.77;;;3.47;;
4089;SDS011;2059;48.538;12.146;2023-04-03T14:53:54;4.07;;;3.77;;
4089;SDS011;2059;48.538;12.146;2023-04-03T14:58:56;3.50;;;3.30;;
4089;SDS011;2059;48.538;12.146;2023-04-03T15:04:01;3.77;;;3.47;;
4089;SDS011;2059;48.538;12.146;2023-04-03T15:09:03;5.87;;;3.53;;
4089;SDS011;2059;48.538;12.146;2023-04-03T15:14:05;3.33;;;3.10;;
4089;SDS011;2059;48.538;12.146;2023-04-03T15:19:11;3.80;;;3.50;;
4089;SDS011;2059;48.538;12.146;2023-04-03T15:24:13;4.93;;;4.53;;
4089;SDS011;2059;48.538;12.146;2023-04-03T15:29:14;4.27;;;3.97;;
4089;SDS011;2059;48.538;12.146;2023-04-03T15:34:18;4.27;;;3.97;;
4089;SDS011;2059;48.538;12.146;2023-04-03T15:39:21;6.50;;;4.30;;
4089;SDS011;2059;48.538;12.146;2023-04-03T15:44:23;3.53;;;3.20;;
4089;SDS011;2059;48.538;12.146;2023-04-03T15:49:27;3.60;;;3.40;;
4089;SDS011;2059;48.538;12.146;2023-04-03T15:54:29;4.10;;;3.40;;
4089;SDS011;2059;48.538;12.146;2023-04-03T15:59:31;4.60;;;4.40;;
4089;SDS011;2059;48.538;12.146;2023-04-03T16:04:34;6.40;;;5.03;;
4089;SDS011;2059;48.538;12.146;2023-04-03T16:09:36;4.60;;;3.70;;
4089;SDS011;2059;48.538;12.146;2023-04-03T16:14:38;3.60;;;3.40;;
4089;SDS011;2059;48.538;12.146;2023-04-03T16:19:41;4.10;;;3.80;;
4089;SDS011;2059;48.538;12.146;2023-04-03T16:24:43;4.30;;;3.90;;
4089;SDS011;2059;48.538;12.146;2023-04-03T16:29:45;3.90;;;3.70;;
4089;SDS011;2059;48.538;12.146;2023-04-03T16:34:48;4.73;;;3.70;;
4089;SDS011;2059;48.538;12.146;2023-04-03T16:39:50;4.23;;;3.70;;
4089;SDS011;2059;48.538;12.146;2023-04-03T16:44:52;3.87;;;3.67;;
4089;SDS011;2059;48.538;12.146;2023-04-03T16:49:55;3.97;;;3.60;;
4089;SDS011;2059;48.538;12.146;2023-04-03T16:54:57;4.40;;;4.00;;
4089;SDS011;2059;48.538;12.146;2023-04-03T16:59:58;4.53;;;4.10;;
4089;SDS011;2059;48.538;12.146;2023-04-03T17:05:02;4.57;;;4.20;;
4089;SDS011;2059;48.538;12.146;2023-04-03T17:10:05;3.17;;;2.80;;
4089;SDS011;2059;48.538;12.146;2023-04-03T17:15:07;9.43;;;3.87;;
4089;SDS011;2059;48.538;12.146;2023-04-03T17:20:12;3.83;;;3.53;;
4089;SDS011;2059;48.538;12.146;2023-04-03T17:25:14;3.60;;;3.40;;
4089;SDS011;2059;48.538;12.146;2023-04-03T17:30:17;3.60;;;3.40;;
4089;SDS011;2059;48.538;12.146;2023-04-03T17:35:20;4.07;;;3.77;;
4089;SDS011;2059;48.538;12.146;2023-04-03T17:40:21;3.80;;;3.50;;
4089;SDS011;2059;48.538;12.146;2023-04-03T17:45:23;5.73;;;4.07;;
4089;SDS011;2059;48.538;12.146;2023-04-03T17:50:27;4.60;;;4.10;;
4089;SDS011;2059;48.538;12.146;2023-04-03T17:55:29;4.20;;;3.90;;
4089;SDS011;2059;48.538;12.146;2023-04-03T18:00:31;4.07;;;3.70;;
4089;SDS011;2059;48.538;12.146;2023-04-03T18:05:34;4.97;;;4.50;;
4089;SDS011;2059;48.538;12.146;2023-04-03T18:10:37;3.50;;;3.30;;
4089;SDS011;2059;48.538;12.146;2023-04-03T18:15:39;3.67;;;3.37;;
4089;SDS011;2059;48.538;12.146;2023-04-03T18:20:45;3.50;;;3.20;;
4089;SDS011;2059;48.538;12.146;2023-04-03T18:25:47;6.30;;;3.77;;
4089;SDS011;2059;48.538;12.146;2023-04-03T18:30:49;3.60;;;3.30;;
4089;SDS011;2059;48.538;12.146;2023-04-03T18:35:52;3.60;;;3.40;;
4089;SDS011;2059;48.538;12.146;2023-04-03T18:40:54;3.73;;;3.43;;
4089;SDS011;2059;48.538;12.146;2023-04-03T18:45:56;3.70;;;3.40;;
4089;SDS011;2059;48.538;12.146;2023-04-03T18:50:59;6.63;;;3.03;;
4089;SDS011;2059;48.538;12.146;2023-04-03T18:56:01;4.13;;;3.83;;
4089;SDS011;2059;48.538;12.146;2023-04-03T19:01:03;3.90;;;3.60;;
4089;SDS011;2059;48.538;12.146;2023-04-03T19:06:07;3.97;;;3.60;;
4089;SDS011;2059;48.538;12.146;2023-04-03T19:11:09;4.67;;;3.33;;
4089;SDS011;2059;48.538;12.146;2023-04-03T19:16:11;4.00;;;3.70;;
4089;SDS011;2059;48.538;12.146;2023-04-03T19:21:14;4.23;;;3.83;;
4089;SDS011;2059;48.538;12.146;2023-04-03T19:26:16;4.80;;;4.17;;
4089;SDS011;2059;48.538;12.146;2023-04-03T19:31:19;4.23;;;3.90;;
4089;SDS011;2059;48.538;12.146;2023-04-03T19:36:26;4.43;;;4.13;;
4089;SDS011;2059;48.538;12.146;2023-04-03T19:41:29;4.53;;;4.10;;
4089;SDS011;2059;48.538;12.146;2023-04-03T19:46:34;4.27;;;3.97;;
4089;SDS011;2059;48.538;12.146;2023-04-03T19:51:38;3.83;;;3.63;;
4089;SDS011;2059;48.538;12.146;2023-04-03T19:56:40;3.77;;;3.47;;
4089;SDS011;2059;48.538;12.146;2023-04-03T20:01:41;4.10;;;3.80;;
4089;SDS011;2059;48.538;12.146;2023-04-03T20:06:46;4.10;;;3.70;;
4089;SDS011;2059;48.538;12.146;2023-04-03T20:11:48;4.20;;;3.80;;
4089;SDS011;2059;48.538;12.146;2023-04-03T20:16:50;4.00;;;3.80;;
4089;SDS011;2059;48.538;12.146;2023-04-03T20:21:53;7.00;;;4.60;;
4089;SDS011;2059;48.538;12.146;2023-04-03T20:26:57;4.50;;;4.20;;
4089;SDS011;2059;48.538;12.146;2023-04-03T20:32:01;5.30;;;4.80;;
4089;SDS011;2059;48.538;12.146;2023-04-03T20:37:07;5.97;;;5.50;;
4089;SDS011;2059;48.538;12.146;2023-04-03T20:42:10;4.10;;;3.80;;
4089;SDS011;2059;48.538;12.146;2023-04-03T20:47:12;5.17;;;4.40;;
4089;SDS011;2059;48.538;12.146;2023-04-03T20:52:16;4.20;;;3.70;;
4089;SDS011;2059;48.538;12.146;2023-04-03T20:57:17;4.77;;;4.33;;
4089;SDS011;2059;48.538;12.146;2023-04-03T21:02:20;4.40;;;4.10;;
4089;SDS011;2059;48.538;12.146;2023-04-03T21:24:22;10.20;;;5.00;;
4089;SDS011;2059;48.538;12.146;2023-04-03T21:29:24;4.70;;;4.30;;
4089;SDS011;2059;48.538;12.146;2023-04-03T21:34:26;4.70;;;4.20;;
4089;SDS011;2059;48.538;12.146;2023-04-03T21:39:29;5.50;;;4.90;;
4089;SDS011;2059;48.538;12.146;2023-04-03T21:44:32;5.40;;;4.90;;
4089;SDS011;2059;48.538;12.146;2023-04-03T21:49:33;5.23;;;4.73;;
4089;SDS011;2059;48.538;12.146;2023-04-03T21:54:36;4.60;;;4.30;;
4089;SDS011;2059;48.538;12.146;2023-04-03T21:59:38;5.60;;;4.90;;
4089;SDS011;2059;48.538;12.146;2023-04-03T22:04:40;7.23;;;4.77;;
4089;SDS011;2059;48.538;12.146;2023-04-03T22:09:44;4.80;;;4.40;;
4089;SDS011;2059;48.538;12.146;2023-04-03T22:14:45;4.30;;;4.00;;
4089;SDS011;2059;48.538;12.146;2023-04-03T22:19:48;4.47;;;3.93;;
4089;SDS011;2059;48.538;12.146;2023-04-03T22:24:51;4.57;;;4.27;;
4089;SDS011;2059;48.538;12.146;2023-04-03T22:29:54;6.90;;;5.03;;
4089;SDS011;2059;48.538;12.146;2023-04-03T22:34:56;4.73;;;4.33;;
4089;SDS011;2059;48.538;12.146;2023-04-03T22:39:59;8.23;;;4.70;;
4089;SDS011;2059;48.538;12.146;2023-04-03T22:45:01;9.10;;;5.87;;
4089;SDS011;2059;48.538;12.146;2023-04-03T22:50:03;10.00;;;7.47;;
4089;SDS011;2059;48.538;12.146;2023-04-03T22:55:08;5.90;;;5.30;;
4089;SDS011;2059;48.538;12.146;2023-04-03T23:00:12;5.50;;;5.10;;
4089;SDS011;2059;48.538;12.146;2023-04-03T23:05:15;4.10;;;3.90;;
4089;SDS011;2059;48.538;12.146;2023-04-03T23:10:18;4.40;;;4.00;;
4089;SDS011;2059;48.538;12.146;2023-04-03T23:15:20;4.23;;;3.90;;
4089;SDS011;2059;48.538;12.146;2023-04-03T23:20:21;4.27;;;3.97;;
4089;SDS011;2059;48.538;12.146;2023-04-03T23:30:27;4.43;;;3.80;;
4089;SDS011;2059;48.538;12.146;2023-04-03T23:35:29;3.80;;;3.60;;
4089;SDS011;2059;48.538;12.146;2023-04-03T23:40:31;5.47;;;4.10;;
4089;SDS011;2059;48.538;12.146;2023-04-03T23:45:34;4.97;;;4.57;;
4089;SDS011;2059;48.538;12.146;2023-04-03T23:50:36;5.83;;;4.80;;
4089;SDS011;2059;48.538;12.146;2023-04-03T23:55:38;5.50;;;5.03;;
